Woodcreek, Texas
Current Conditions -  °F | °C
As of 7:46 AM on Monday 26 Jan 2015 (Local Time) from KHYI Reporting Station
Clear Clear  
Wind Chill: 40°   Ceiling: Unl
Heat Index: 43°   Visibility: 10mi
Dew Point: 34°   Wind: 5mph
Humidity: 70%   Direction: 360°N
Pressure: 30.26"   Gusts: NA
Location:  30.0586°N, 98.15°W
Report Text: KHYI 261346Z 36004KT 10SM CLR 06/01 A3026
Loading
Personal Weather Stations






























Interactive Weather Map New forecast layout! Learn more

10-Day Weather Forecast

Advertisements
Track Severe Weather on mobile